sensor_id;sensor_type;location;lat;lon;timestamp;pressure;altitude;pressure_sealevel;temperature;humidity
11678;BME280;5895;41.950;24.372;2023-07-31T00:01:34;86678.56;;;18.48;55.01
11678;BME280;5895;41.950;24.372;2023-07-31T00:04:01;86671.19;;;18.50;54.98
11678;BME280;5895;41.950;24.372;2023-07-31T00:06:30;86668.84;;;18.49;55.57
11678;BME280;5895;41.950;24.372;2023-07-31T00:08:57;86674.59;;;18.51;55.03
11678;BME280;5895;41.950;24.372;2023-07-31T00:11:24;86667.00;;;18.49;55.19
11678;BME280;5895;41.950;24.372;2023-07-31T00:13:53;86673.03;;;18.50;55.26
11678;BME280;5895;41.950;24.372;2023-07-31T00:16:20;86667.00;;;18.49;55.39
11678;BME280;5895;41.950;24.372;2023-07-31T00:18:47;86668.00;;;18.54;55.32
11678;BME280;5895;41.950;24.372;2023-07-31T00:21:15;86660.41;;;18.52;55.39
11678;BME280;5895;41.950;24.372;2023-07-31T00:23:43;86661.44;;;18.51;55.45
11678;BME280;5895;41.950;24.372;2023-07-31T00:26:11;86657.53;;;18.48;54.90
11678;BME280;5895;41.950;24.372;2023-07-31T00:28:38;86654.91;;;18.48;55.59
11678;BME280;5895;41.950;24.372;2023-07-31T00:31:05;86662.81;;;18.48;55.11
11678;BME280;5895;41.950;24.372;2023-07-31T00:33:35;86666.50;;;18.47;56.53
11678;BME280;5895;41.950;24.372;2023-07-31T00:36:02;86661.78;;;18.44;55.73
11678;BME280;5895;41.950;24.372;2023-07-31T00:38:30;86667.59;;;18.41;55.35
11678;BME280;5895;41.950;24.372;2023-07-31T00:40:58;86672.28;;;18.44;56.04
11678;BME280;5895;41.950;24.372;2023-07-31T00:43:25;86680.16;;;18.44;55.12
11678;BME280;5895;41.950;24.372;2023-07-31T00:45:53;86672.81;;;18.46;55.60
11678;BME280;5895;41.950;24.372;2023-07-31T00:48:20;86675.66;;;18.50;55.49
11678;BME280;5895;41.950;24.372;2023-07-31T00:50:48;86672.75;;;18.51;55.28
11678;BME280;5895;41.950;24.372;2023-07-31T00:53:15;86676.97;;;18.53;55.03
11678;BME280;5895;41.950;24.372;2023-07-31T00:55:43;86668.50;;;18.56;54.78
11678;BME280;5895;41.950;24.372;2023-07-31T00:58:11;86670.59;;;18.59;55.00
11678;BME280;5895;41.950;24.372;2023-07-31T01:00:38;86674.28;;;18.58;54.99
11678;BME280;5895;41.950;24.372;2023-07-31T01:03:06;86669.53;;;18.60;54.91
11678;BME280;5895;41.950;24.372;2023-07-31T01:05:42;86674.22;;;18.63;57.24
11678;BME280;5895;41.950;24.372;2023-07-31T01:08:17;86677.66;;;18.63;56.49
11678;BME280;5895;41.950;24.372;2023-07-31T01:10:49;86677.63;;;18.68;56.32
11678;BME280;5895;41.950;24.372;2023-07-31T01:13:19;86671.34;;;18.69;55.24
11678;BME280;5895;41.950;24.372;2023-07-31T01:15:47;86672.59;;;18.72;54.77
11678;BME280;5895;41.950;24.372;2023-07-31T01:18:14;86671.53;;;18.73;54.46
11678;BME280;5895;41.950;24.372;2023-07-31T01:20:42;86672.06;;;18.75;54.71
11678;BME280;5895;41.950;24.372;2023-07-31T01:23:27;86677.31;;;18.75;59.13
11678;BME280;5895;41.950;24.372;2023-07-31T01:26:05;86664.44;;;18.73;57.21
11678;BME280;5895;41.950;24.372;2023-07-31T01:28:45;86660.78;;;18.74;55.75
11678;BME280;5895;41.950;24.372;2023-07-31T01:31:18;86664.44;;;18.73;55.68
11678;BME280;5895;41.950;24.372;2023-07-31T01:33:47;86671.53;;;18.73;54.53
11678;BME280;5895;41.950;24.372;2023-07-31T01:36:15;86673.38;;;18.72;54.92
11678;BME280;5895;41.950;24.372;2023-07-31T01:38:42;86681.06;;;18.69;54.82
11678;BME280;5895;41.950;24.372;2023-07-31T01:41:11;86676.31;;;18.66;55.54
11678;BME280;5895;41.950;24.372;2023-07-31T01:43:39;86684.75;;;18.63;54.95
11678;BME280;5895;41.950;24.372;2023-07-31T01:46:06;86680.03;;;18.60;55.55
11678;BME280;5895;41.950;24.372;2023-07-31T01:48:33;86677.41;;;18.60;55.25
11678;BME280;5895;41.950;24.372;2023-07-31T01:51:02;86672.16;;;18.60;55.30
11678;BME280;5895;41.950;24.372;2023-07-31T01:53:30;86676.34;;;18.61;55.53
11678;BME280;5895;41.950;24.372;2023-07-31T01:55:58;86683.16;;;18.62;55.17
11678;BME280;5895;41.950;24.372;2023-07-31T01:58:26;86680.03;;;18.60;56.50
11678;BME280;5895;41.950;24.372;2023-07-31T02:00:53;86686.91;;;18.56;55.78
11678;BME280;5895;41.950;24.372;2023-07-31T02:03:21;86694.78;;;18.56;56.07
11678;BME280;5895;41.950;24.372;2023-07-31T02:05:49;86691.88;;;18.57;56.28
11678;BME280;5895;41.950;24.372;2023-07-31T02:08:16;86692.69;;;18.58;56.70
11678;BME280;5895;41.950;24.372;2023-07-31T02:10:44;86684.28;;;18.56;57.67
11678;BME280;5895;41.950;24.372;2023-07-31T02:13:11;86685.63;;;18.53;57.68
11678;BME280;5895;41.950;24.372;2023-07-31T02:15:39;86683.31;;;18.46;58.12
11678;BME280;5895;41.950;24.372;2023-07-31T02:18:07;86680.97;;;18.40;58.09
11678;BME280;5895;41.950;24.372;2023-07-31T02:20:34;86673.38;;;18.38;58.44
11678;BME280;5895;41.950;24.372;2023-07-31T02:23:02;86676.00;;;18.38;58.91
11678;BME280;5895;41.950;24.372;2023-07-31T02:25:29;86669.69;;;18.39;58.99
11678;BME280;5895;41.950;24.372;2023-07-31T02:27:56;86658.41;;;18.39;59.75
11678;BME280;5895;41.950;24.372;2023-07-31T02:30:23;86658.69;;;18.37;59.35
11678;BME280;5895;41.950;24.372;2023-07-31T02:32:51;86647.13;;;18.38;59.88
11678;BME280;5895;41.950;24.372;2023-07-31T02:35:18;86642.94;;;18.37;59.63
11678;BME280;5895;41.950;24.372;2023-07-31T02:37:46;86641.38;;;18.36;59.91
11678;BME280;5895;41.950;24.372;2023-07-31T02:40:13;86642.44;;;18.35;60.23
11678;BME280;5895;41.950;24.372;2023-07-31T02:42:40;86634.03;;;18.33;61.06
11678;BME280;5895;41.950;24.372;2023-07-31T02:45:08;86638.78;;;18.31;61.19
11678;BME280;5895;41.950;24.372;2023-07-31T02:47:36;86636.44;;;18.30;61.04
11678;BME280;5895;41.950;24.372;2023-07-31T02:50:08;86633.28;;;18.28;63.26
11678;BME280;5895;41.950;24.372;2023-07-31T02:52:35;86625.72;;;18.21;61.60
11678;BME280;5895;41.950;24.372;2023-07-31T02:55:03;86624.66;;;18.22;61.22
11678;BME280;5895;41.950;24.372;2023-07-31T02:57:31;86625.72;;;18.21;61.64
11678;BME280;5895;41.950;24.372;2023-07-31T02:59:58;86632.53;;;18.22;62.32
11678;BME280;5895;41.950;24.372;2023-07-31T03:02:25;86624.16;;;18.20;62.02
11678;BME280;5895;41.950;24.372;2023-07-31T03:04:52;86624.16;;;18.20;62.14
11678;BME280;5895;41.950;24.372;2023-07-31T03:07:21;86632.03;;;18.20;64.01
11678;BME280;5895;41.950;24.372;2023-07-31T03:09:48;86629.47;;;18.10;62.21
11678;BME280;5895;41.950;24.372;2023-07-31T03:12:15;86627.38;;;18.07;62.65
11678;BME280;5895;41.950;24.372;2023-07-31T03:14:42;86626.88;;;18.05;62.68
11678;BME280;5895;41.950;24.372;2023-07-31T03:17:09;86635.38;;;17.96;63.24
11678;BME280;5895;41.950;24.372;2023-07-31T03:19:37;86633.56;;;17.92;63.57
11678;BME280;5895;41.950;24.372;2023-07-31T03:22:05;86636.47;;;17.90;63.38
11678;BME280;5895;41.950;24.372;2023-07-31T03:24:33;86636.19;;;17.92;63.16
11678;BME280;5895;41.950;24.372;2023-07-31T03:27:00;86626.47;;;17.92;63.08
11678;BME280;5895;41.950;24.372;2023-07-31T03:29:28;86631.22;;;17.90;63.66
11678;BME280;5895;41.950;24.372;2023-07-31T03:31:55;86632.78;;;17.91;63.87
11678;BME280;5895;41.950;24.372;2023-07-31T03:34:22;86636.19;;;17.92;63.81
11678;BME280;5895;41.950;24.372;2023-07-31T03:36:49;86629.88;;;17.93;63.83
11678;BME280;5895;41.950;24.372;2023-07-31T03:39:17;86636.69;;;17.94;64.12
11678;BME280;5895;41.950;24.372;2023-07-31T03:41:45;86639.03;;;17.95;64.62
11678;BME280;5895;41.950;24.372;2023-07-31T03:44:12;86641.66;;;17.95;64.00
11678;BME280;5895;41.950;24.372;2023-07-31T03:46:40;86651.13;;;17.96;64.36
11678;BME280;5895;41.950;24.372;2023-07-31T03:49:07;86649.53;;;17.95;63.99
11678;BME280;5895;41.950;24.372;2023-07-31T03:51:34;86651.91;;;17.97;64.36
11678;BME280;5895;41.950;24.372;2023-07-31T03:54:01;86656.38;;;17.96;64.30
11678;BME280;5895;41.950;24.372;2023-07-31T03:56:29;86658.72;;;17.98;64.42
11678;BME280;5895;41.950;24.372;2023-07-31T03:58:57;86667.88;;;18.01;64.52
11678;BME280;5895;41.950;24.372;2023-07-31T04:01:25;86662.09;;;18.04;63.81
11678;BME280;5895;41.950;24.372;2023-07-31T04:03:52;86659.97;;;18.06;64.19
11678;BME280;5895;41.950;24.372;2023-07-31T04:06:19;86661.81;;;18.05;64.28
11678;BME280;5895;41.950;24.372;2023-07-31T04:08:46;86665.22;;;18.06;64.12
11678;BME280;5895;41.950;24.372;2023-07-31T04:11:13;86667.34;;;18.04;64.37
11678;BME280;5895;41.950;24.372;2023-07-31T04:13:40;86666.84;;;18.02;64.79
11678;BME280;5895;41.950;24.372;2023-07-31T04:16:09;86674.16;;;18.05;65.25
11678;BME280;5895;41.950;24.372;2023-07-31T04:18:37;86680.97;;;18.06;64.66
11678;BME280;5895;41.950;24.372;2023-07-31T04:21:04;86677.28;;;18.07;65.25
11678;BME280;5895;41.950;24.372;2023-07-31T04:23:31;86687.25;;;18.10;65.07
11678;BME280;5895;41.950;24.372;2023-07-31T04:25:58;86687.53;;;18.08;65.16
11678;BME280;5895;41.950;24.372;2023-07-31T04:28:25;86692.25;;;18.06;64.97
11678;BME280;5895;41.950;24.372;2023-07-31T04:30:53;86683.59;;;18.06;65.71
11678;BME280;5895;41.950;24.372;2023-07-31T04:33:21;86684.38;;;18.06;66.67
11678;BME280;5895;41.950;24.372;2023-07-31T04:35:50;86693.84;;;18.07;66.34
11678;BME280;5895;41.950;24.372;2023-07-31T04:38:18;86691.72;;;18.09;66.17
11678;BME280;5895;41.950;24.372;2023-07-31T04:40:45;86693.28;;;18.10;66.07
11678;BME280;5895;41.950;24.372;2023-07-31T04:43:13;86696.41;;;18.12;66.21
11678;BME280;5895;41.950;24.372;2023-07-31T04:45:42;86695.63;;;18.12;68.59
11678;BME280;5895;41.950;24.372;2023-07-31T04:48:09;86700.09;;;18.11;66.82
11678;BME280;5895;41.950;24.372;2023-07-31T04:50:38;86692.50;;;18.10;68.04
11678;BME280;5895;41.950;24.372;2023-07-31T04:53:05;86707.22;;;18.06;67.32
11678;BME280;5895;41.950;24.372;2023-07-31T04:55:32;86706.72;;;18.04;67.94
11678;BME280;5895;41.950;24.372;2023-07-31T04:58:00;86703.06;;;18.00;68.46
11678;BME280;5895;41.950;24.372;2023-07-31T05:00:27;86701.50;;;17.98;68.20
11678;BME280;5895;41.950;24.372;2023-07-31T05:02:54;86694.16;;;17.95;68.87
11678;BME280;5895;41.950;24.372;2023-07-31T05:05:22;86703.63;;;17.96;68.60
11678;BME280;5895;41.950;24.372;2023-07-31T05:07:50;86699.94;;;17.97;68.85
11678;BME280;5895;41.950;24.372;2023-07-31T05:10:18;86699.94;;;17.97;68.18
11678;BME280;5895;41.950;24.372;2023-07-31T05:12:45;86699.38;;;18.01;67.76
11678;BME280;5895;41.950;24.372;2023-07-31T05:15:12;86695.66;;;18.07;67.85
11678;BME280;5895;41.950;24.372;2023-07-31T05:17:40;86690.38;;;18.12;67.23
11678;BME280;5895;41.950;24.372;2023-07-31T05:20:08;86684.59;;;18.15;67.12
11678;BME280;5895;41.950;24.372;2023-07-31T05:22:36;86686.66;;;18.18;67.21
11678;BME280;5895;41.950;24.372;2023-07-31T05:25:05;86688.44;;;18.28;67.16
11678;BME280;5895;41.950;24.372;2023-07-31T05:27:35;86697.63;;;18.30;65.99
11678;BME280;5895;41.950;24.372;2023-07-31T05:30:03;86688.69;;;18.31;66.14
11678;BME280;5895;41.950;24.372;2023-07-31T05:32:30;86692.06;;;18.37;65.49
11678;BME280;5895;41.950;24.372;2023-07-31T05:34:58;86682.88;;;18.34;65.82
11678;BME280;5895;41.950;24.372;2023-07-31T05:37:25;86691.81;;;18.33;65.51
11678;BME280;5895;41.950;24.372;2023-07-31T05:39:52;86701.00;;;18.36;65.47
11678;BME280;5895;41.950;24.372;2023-07-31T05:42:21;86702.28;;;18.38;66.35
11678;BME280;5895;41.950;24.372;2023-07-31T05:44:48;86700.22;;;18.35;66.19
11678;BME280;5895;41.950;24.372;2023-07-31T05:47:16;86703.34;;;18.37;65.54
11678;BME280;5895;41.950;24.372;2023-07-31T05:49:43;86706.69;;;18.48;65.85
11678;BME280;5895;41.950;24.372;2023-07-31T05:52:11;86698.47;;;18.55;66.03
11678;BME280;5895;41.950;24.372;2023-07-31T05:54:38;86696.28;;;18.67;65.17
11678;BME280;5895;41.950;24.372;2023-07-31T05:57:06;86698.34;;;18.75;64.86
11678;BME280;5895;41.950;24.372;2023-07-31T05:59:34;86699.34;;;18.79;65.27
11678;BME280;5895;41.950;24.372;2023-07-31T06:02:02;86704.06;;;18.82;64.88
11678;BME280;5895;41.950;24.372;2023-07-31T06:04:29;86704.03;;;18.87;65.11
11678;BME280;5895;41.950;24.372;2023-07-31T06:06:57;86699.72;;;18.96;64.76
11678;BME280;5895;41.950;24.372;2023-07-31T06:09:24;86708.03;;;19.09;64.27
11678;BME280;5895;41.950;24.372;2023-07-31T06:11:52;86711.13;;;19.16;64.19
11678;BME280;5895;41.950;24.372;2023-07-31T06:14:19;86710.63;;;19.14;64.29
11678;BME280;5895;41.950;24.372;2023-07-31T06:16:50;86712.44;;;19.13;65.60
11678;BME280;5895;41.950;24.372;2023-07-31T06:19:18;86717.44;;;19.15;64.71
11678;BME280;5895;41.950;24.372;2023-07-31T06:21:45;86721.59;;;19.21;64.53
11678;BME280;5895;41.950;24.372;2023-07-31T06:24:13;86719.69;;;19.26;64.50
11678;BME280;5895;41.950;24.372;2023-07-31T06:26:44;86716.22;;;19.31;64.73
11678;BME280;5895;41.950;24.372;2023-07-31T06:29:12;86712.25;;;19.34;64.88
11678;BME280;5895;41.950;24.372;2023-07-31T06:31:40;86721.16;;;19.38;65.51
11678;BME280;5895;41.950;24.372;2023-07-31T06:34:09;86715.56;;;19.44;65.13
11678;BME280;5895;41.950;24.372;2023-07-31T06:36:36;86711.25;;;19.53;64.66
11678;BME280;5895;41.950;24.372;2023-07-31T06:39:04;86716.69;;;19.62;64.43
11678;BME280;5895;41.950;24.372;2023-07-31T06:41:31;86719.28;;;19.67;64.71
11678;BME280;5895;41.950;24.372;2023-07-31T06:43:58;86722.41;;;19.69;64.73
11678;BME280;5895;41.950;24.372;2023-07-31T06:46:26;86721.34;;;19.70;64.51
11678;BME280;5895;41.950;24.372;2023-07-31T06:48:53;86715.81;;;19.72;64.73
11678;BME280;5895;41.950;24.372;2023-07-31T06:51:22;86709.28;;;19.88;65.21
11678;BME280;5895;41.950;24.372;2023-07-31T06:53:49;86722.69;;;20.11;63.39
11678;BME280;5895;41.950;24.372;2023-07-31T06:56:17;86712.81;;;20.21;63.26
11678;BME280;5895;41.950;24.372;2023-07-31T06:58:44;86718.28;;;20.25;63.03
11678;BME280;5895;41.950;24.372;2023-07-31T07:01:11;86719.28;;;20.29;63.13
11678;BME280;5895;41.950;24.372;2023-07-31T07:03:39;86717.06;;;20.36;63.09
11678;BME280;5895;41.950;24.372;2023-07-31T07:06:06;86719.38;;;20.43;63.06
11678;BME280;5895;41.950;24.372;2023-07-31T07:08:35;86717.47;;;20.48;63.42
11678;BME280;5895;41.950;24.372;2023-07-31T07:11:02;86718.69;;;20.56;62.80
11678;BME280;5895;41.950;24.372;2023-07-31T07:13:29;86722.38;;;20.55;63.26
11678;BME280;5895;41.950;24.372;2023-07-31T07:15:57;86721.53;;;20.59;63.00
11678;BME280;5895;41.950;24.372;2023-07-31T07:18:24;86727.78;;;20.64;62.64
11678;BME280;5895;41.950;24.372;2023-07-31T07:20:52;86727.94;;;20.72;62.38
11678;BME280;5895;41.950;24.372;2023-07-31T07:23:20;86726.47;;;20.80;62.32
11678;BME280;5895;41.950;24.372;2023-07-31T07:25:49;86735.66;;;21.01;61.59
11678;BME280;5895;41.950;24.372;2023-07-31T07:28:17;86727.41;;;21.22;61.07
11678;BME280;5895;41.950;24.372;2023-07-31T07:30:44;86725.03;;;21.39;60.39
11678;BME280;5895;41.950;24.372;2023-07-31T07:33:11;86728.16;;;21.41;60.05
11678;BME280;5895;41.950;24.372;2023-07-31T07:35:39;86733.41;;;21.41;60.43
11678;BME280;5895;41.950;24.372;2023-07-31T07:38:06;86733.81;;;21.48;60.48
11678;BME280;5895;41.950;24.372;2023-07-31T07:40:38;86730.13;;;21.77;62.57
11678;BME280;5895;41.950;24.372;2023-07-31T07:43:07;86729.75;;;21.97;59.15
11678;BME280;5895;41.950;24.372;2023-07-31T07:45:35;86735.72;;;21.89;59.18
11678;BME280;5895;41.950;24.372;2023-07-31T07:48:02;86735.41;;;21.77;59.81
11678;BME280;5895;41.950;24.372;2023-07-31T07:50:30;86740.91;;;21.67;60.45
11678;BME280;5895;41.950;24.372;2023-07-31T07:52:57;86746.44;;;21.51;60.89
11678;BME280;5895;41.950;24.372;2023-07-31T07:55:25;86738.69;;;21.41;61.65
11678;BME280;5895;41.950;24.372;2023-07-31T07:57:52;86742.03;;;21.33;62.33
11678;BME280;5895;41.950;24.372;2023-07-31T08:00:21;86748.25;;;21.37;62.49
11678;BME280;5895;41.950;24.372;2023-07-31T08:02:48;86749.19;;;21.46;61.87
11678;BME280;5895;41.950;24.372;2023-07-31T08:05:15;86740.38;;;21.51;61.57
11678;BME280;5895;41.950;24.372;2023-07-31T08:07:43;86743.63;;;21.75;60.75
11678;BME280;5895;41.950;24.372;2023-07-31T08:10:11;86739.22;;;21.71;60.70
11678;BME280;5895;41.950;24.372;2023-07-31T08:12:38;86741.47;;;21.63;61.03
11678;BME280;5895;41.950;24.372;2023-07-31T08:15:06;86750.69;;;21.80;60.84
11678;BME280;5895;41.950;24.372;2023-07-31T08:17:35;86748.72;;;21.85;60.56
11678;BME280;5895;41.950;24.372;2023-07-31T08:20:03;86742.06;;;21.88;59.95
11678;BME280;5895;41.950;24.372;2023-07-31T08:22:31;86740.50;;;21.87;60.50
11678;BME280;5895;41.950;24.372;2023-07-31T08:24:58;86743.84;;;22.06;59.83
11678;BME280;5895;41.950;24.372;2023-07-31T08:27:26;86744.16;;;22.18;59.05
11678;BME280;5895;41.950;24.372;2023-07-31T08:29:53;86739.94;;;22.17;59.35
11678;BME280;5895;41.950;24.372;2023-07-31T08:32:20;86739.75;;;22.00;59.39
11678;BME280;5895;41.950;24.372;2023-07-31T08:34:49;86742.28;;;21.78;60.87
11678;BME280;5895;41.950;24.372;2023-07-31T08:37:16;86745.19;;;21.62;61.42
11678;BME280;5895;41.950;24.372;2023-07-31T08:39:43;86744.97;;;21.45;62.66
11678;BME280;5895;41.950;24.372;2023-07-31T08:42:12;86741.00;;;21.61;62.23
11678;BME280;5895;41.950;24.372;2023-07-31T08:44:39;86740.91;;;21.80;61.54
11678;BME280;5895;41.950;24.372;2023-07-31T08:47:07;86743.44;;;21.99;60.48
11678;BME280;5895;41.950;24.372;2023-07-31T08:49:35;86747.94;;;22.26;59.35
11678;BME280;5895;41.950;24.372;2023-07-31T08:52:07;86742.88;;;22.30;60.50
11678;BME280;5895;41.950;24.372;2023-07-31T08:54:34;86742.88;;;22.30;59.56
11678;BME280;5895;41.950;24.372;2023-07-31T08:57:02;86750.28;;;22.28;59.84
11678;BME280;5895;41.950;24.372;2023-07-31T08:59:31;86753.84;;;22.23;59.76
11678;BME280;5895;41.950;24.372;2023-07-31T09:02:08;86743.66;;;22.16;61.04
11678;BME280;5895;41.950;24.372;2023-07-31T09:04:35;86747.47;;;22.10;59.23
11678;BME280;5895;41.950;24.372;2023-07-31T09:07:05;86746.97;;;22.36;58.36
11678;BME280;5895;41.950;24.372;2023-07-31T09:09:34;86741.63;;;22.63;57.60
11678;BME280;5895;41.950;24.372;2023-07-31T09:12:03;86746.66;;;23.01;57.06
11678;BME280;5895;41.950;24.372;2023-07-31T09:14:31;86744.06;;;23.10;56.56
11678;BME280;5895;41.950;24.372;2023-07-31T09:16:59;86749.16;;;23.06;56.08
11678;BME280;5895;41.950;24.372;2023-07-31T09:19:29;86750.47;;;23.17;55.64
11678;BME280;5895;41.950;24.372;2023-07-31T09:21:57;86743.84;;;23.51;55.45
11678;BME280;5895;41.950;24.372;2023-07-31T09:24:30;86743.91;;;23.82;56.25
11678;BME280;5895;41.950;24.372;2023-07-31T09:26:59;86748.06;;;23.74;54.90
11678;BME280;5895;41.950;24.372;2023-07-31T09:29:27;86747.88;;;24.02;54.81
11678;BME280;5895;41.950;24.372;2023-07-31T09:31:55;86745.84;;;24.39;54.16
11678;BME280;5895;41.950;24.372;2023-07-31T09:34:29;86744.81;;;24.66;55.55
11678;BME280;5895;41.950;24.372;2023-07-31T09:37:02;86750.91;;;24.66;54.99
11678;BME280;5895;41.950;24.372;2023-07-31T09:39:31;86745.38;;;24.45;53.69
11678;BME280;5895;41.950;24.372;2023-07-31T09:41:59;86747.41;;;24.40;53.65
11678;BME280;5895;41.950;24.372;2023-07-31T09:44:37;86740.44;;;24.52;56.00
11678;BME280;5895;41.950;24.372;2023-07-31T09:47:06;86743.28;;;24.91;53.63
11678;BME280;5895;41.950;24.372;2023-07-31T09:49:33;86749.41;;;25.17;53.03
11678;BME280;5895;41.950;24.372;2023-07-31T09:52:00;86750.97;;;25.18;52.73
11678;BME280;5895;41.950;24.372;2023-07-31T09:54:28;86747.56;;;25.26;52.54
11678;BME280;5895;41.950;24.372;2023-07-31T09:56:58;86740.19;;;25.49;52.69
11678;BME280;5895;41.950;24.372;2023-07-31T09:59:26;86742.19;;;25.61;51.16
11678;BME280;5895;41.950;24.372;2023-07-31T10:01:56;86737.50;;;25.75;51.99
11678;BME280;5895;41.950;24.372;2023-07-31T10:04:27;86743.59;;;25.58;52.35
11678;BME280;5895;41.950;24.372;2023-07-31T10:06:55;86740.00;;;25.63;51.40
11678;BME280;5895;41.950;24.372;2023-07-31T10:09:24;86740.16;;;25.75;51.62
11678;BME280;5895;41.950;24.372;2023-07-31T10:11:59;86735.88;;;25.92;51.10
11678;BME280;5895;41.950;24.372;2023-07-31T10:14:27;86736.22;;;25.64;51.64
11678;BME280;5895;41.950;24.372;2023-07-31T10:16:56;86728.47;;;25.59;51.79
11678;BME280;5895;41.950;24.372;2023-07-31T10:19:24;86732.78;;;25.72;51.56
11678;BME280;5895;41.950;24.372;2023-07-31T10:21:54;86725.69;;;26.02;50.93
11678;BME280;5895;41.950;24.372;2023-07-31T10:24:23;86722.25;;;26.02;51.13
11678;BME280;5895;41.950;24.372;2023-07-31T10:26:53;86724.03;;;26.27;50.63
11678;BME280;5895;41.950;24.372;2023-07-31T10:29:24;86714.84;;;26.54;50.12
11678;BME280;5895;41.950;24.372;2023-07-31T10:31:53;86717.38;;;26.80;49.53
11678;BME280;5895;41.950;24.372;2023-07-31T10:34:23;86725.22;;;27.06;48.73
11678;BME280;5895;41.950;24.372;2023-07-31T10:36:50;86728.16;;;27.05;49.23
11678;BME280;5895;41.950;24.372;2023-07-31T10:39:35;86735.25;;;26.71;49.80
11678;BME280;5895;41.950;24.372;2023-07-31T10:42:12;86732.38;;;26.17;50.27
11678;BME280;5895;41.950;24.372;2023-07-31T10:44:46;86723.50;;;26.04;50.47
11678;BME280;5895;41.950;24.372;2023-07-31T10:47:15;86725.94;;;26.27;50.05
11678;BME280;5895;41.950;24.372;2023-07-31T10:49:45;86723.03;;;26.49;49.20
11678;BME280;5895;41.950;24.372;2023-07-31T10:52:13;86725.53;;;26.75;48.81
11678;BME280;5895;41.950;24.372;2023-07-31T10:54:41;86735.00;;;26.64;49.26
11678;BME280;5895;41.950;24.372;2023-07-31T10:57:19;86727.50;;;26.87;48.70
11678;BME280;5895;41.950;24.372;2023-07-31T10:59:48;86728.56;;;26.95;48.39
11678;BME280;5895;41.950;24.372;2023-07-31T11:02:26;86720.97;;;27.26;48.29
11678;BME280;5895;41.950;24.372;2023-07-31T11:05:08;86714.25;;;27.62;46.38
11678;BME280;5895;41.950;24.372;2023-07-31T11:07:48;86719.88;;;27.27;45.64
11678;BME280;5895;41.950;24.372;2023-07-31T11:10:19;86722.31;;;26.90;47.41
11678;BME280;5895;41.950;24.372;2023-07-31T11:12:46;86714.03;;;27.13;47.23
11678;BME280;5895;41.950;24.372;2023-07-31T11:15:15;86705.31;;;27.25;47.18
11678;BME280;5895;41.950;24.372;2023-07-31T11:17:42;86708.94;;;26.99;47.39
11678;BME280;5895;41.950;24.372;2023-07-31T11:20:10;86712.97;;;27.05;47.40
11678;BME280;5895;41.950;24.372;2023-07-31T11:22:38;86719.09;;;27.06;47.33
11678;BME280;5895;41.950;24.372;2023-07-31T11:25:06;86716.47;;;26.97;47.38
11678;BME280;5895;41.950;24.372;2023-07-31T11:27:39;86713.13;;;27.09;45.09
11678;BME280;5895;41.950;24.372;2023-07-31T11:30:09;86711.03;;;27.14;46.99
11678;BME280;5895;41.950;24.372;2023-07-31T11:32:38;86699.72;;;27.38;45.84
11678;BME280;5895;41.950;24.372;2023-07-31T11:35:07;86703.88;;;27.48;46.02
11678;BME280;5895;41.950;24.372;2023-07-31T11:37:40;86706.16;;;27.91;44.87
11678;BME280;5895;41.950;24.372;2023-07-31T11:40:09;86706.44;;;28.23;45.55
11678;BME280;5895;41.950;24.372;2023-07-31T11:42:37;86703.81;;;28.48;45.13
11678;BME280;5895;41.950;24.372;2023-07-31T11:45:05;86698.47;;;28.60;44.65
11678;BME280;5895;41.950;24.372;2023-07-31T11:47:33;86697.34;;;28.61;44.41
11678;BME280;5895;41.950;24.372;2023-07-31T11:50:04;86692.25;;;28.80;44.53
11678;BME280;5895;41.950;24.372;2023-07-31T11:52:34;86682.75;;;28.95;44.09
11678;BME280;5895;41.950;24.372;2023-07-31T11:55:04;86678.28;;;29.11;44.22
11678;BME280;5895;41.950;24.372;2023-07-31T11:57:33;86673.94;;;29.19;43.89
11678;BME280;5895;41.950;24.372;2023-07-31T12:00:00;86667.00;;;29.30;43.82
11678;BME280;5895;41.950;24.372;2023-07-31T12:02:28;86674.78;;;29.35;43.95
11678;BME280;5895;41.950;24.372;2023-07-31T12:04:56;86675.94;;;29.50;44.08
11678;BME280;5895;41.950;24.372;2023-07-31T12:07:25;86676.25;;;29.61;43.35
11678;BME280;5895;41.950;24.372;2023-07-31T12:09:53;86677.09;;;29.77;43.41
11678;BME280;5895;41.950;24.372;2023-07-31T12:12:21;86678.78;;;29.41;43.69
11678;BME280;5895;41.950;24.372;2023-07-31T12:14:49;86682.00;;;28.94;44.70
11678;BME280;5895;41.950;24.372;2023-07-31T12:17:19;86682.03;;;28.45;45.25
11678;BME280;5895;41.950;24.372;2023-07-31T12:19:48;86682.38;;;28.11;45.13
11678;BME280;5895;41.950;24.372;2023-07-31T12:22:16;86676.13;;;27.82;46.41
11678;BME280;5895;41.950;24.372;2023-07-31T12:24:45;86664.25;;;27.92;45.30
11678;BME280;5895;41.950;24.372;2023-07-31T12:27:13;86667.28;;;28.27;45.00
11678;BME280;5895;41.950;24.372;2023-07-31T12:29:42;86665.78;;;28.63;45.07
11678;BME280;5895;41.950;24.372;2023-07-31T12:32:20;86669.75;;;28.81;42.88
11678;BME280;5895;41.950;24.372;2023-07-31T12:34:48;86664.19;;;28.62;45.02
11678;BME280;5895;41.950;24.372;2023-07-31T12:37:15;86658.44;;;28.48;44.95
11678;BME280;5895;41.950;24.372;2023-07-31T12:39:44;86661.09;;;28.23;44.83
11678;BME280;5895;41.950;24.372;2023-07-31T12:42:12;86659.06;;;27.96;45.06
11678;BME280;5895;41.950;24.372;2023-07-31T12:44:39;86655.00;;;27.77;45.08
11678;BME280;5895;41.950;24.372;2023-07-31T12:47:06;86649.16;;;27.96;45.29
11678;BME280;5895;41.950;24.372;2023-07-31T12:49:33;86641.59;;;28.10;44.38
11678;BME280;5895;41.950;24.372;2023-07-31T12:52:01;86647.63;;;28.19;44.85
11678;BME280;5895;41.950;24.372;2023-07-31T12:54:28;86655.28;;;28.21;44.01
11678;BME280;5895;41.950;24.372;2023-07-31T12:56:57;86654.84;;;28.07;44.13
11678;BME280;5895;41.950;24.372;2023-07-31T12:59:24;86654.63;;;28.24;44.14
11678;BME280;5895;41.950;24.372;2023-07-31T13:01:51;86652.19;;;28.19;44.33
11678;BME280;5895;41.950;24.372;2023-07-31T13:04:19;86650.28;;;27.95;45.10
11678;BME280;5895;41.950;24.372;2023-07-31T13:06:47;86651.63;;;27.68;45.26